Time;durP1;ratioP1;P1;durP2;ratioP2;P2;SDS_P1;SDS_P2;PMS_P1;PMS_P2;Temp;Humidity;BMP_temperature;BMP_pressure;BME280_temperature;BME280_humidity;BME280_pressure;Samples;Min_cycle;Max_cycle;Signal;HPM_P1;HPM_P2
2023/04/29 00:00:00;;;;;;;12.82;7.18;;;;;;;3.19;73.68;93514.31;514077;28;952;-49
2023/04/29 00:00:16;;;;;;;12.40;6.87;;;;;;;3.18;73.75;93512.84;514014;28;841;-49
2023/04/29 00:00:32;;;;;;;15.05;6.47;;;;;;;3.17;73.46;93511.34;515371;28;1188;-49
2023/04/29 00:00:47;;;;;;;10.97;6.17;;;;;;;3.16;73.41;93517.31;516095;28;767;-50
2023/04/29 00:01:03;;;;;;;7.63;6.10;;;;;;;3.13;73.52;93513.56;515931;28;908;-49
2023/04/29 00:01:18;;;;;;;8.23;6.37;;;;;;;3.06;73.20;93514.84;516076;28;837;-49
2023/04/29 00:01:34;;;;;;;15.02;6.47;;;;;;;2.95;73.86;93517.56;516085;28;1915;-50
2023/04/29 00:01:49;;;;;;;19.97;6.50;;;;;;;2.83;73.68;93518.09;516076;28;861;-50
2023/04/29 00:02:04;;;;;;;18.58;6.57;;;;;;;2.73;74.00;93517.59;515352;28;1437;-49
2023/04/29 00:02:20;;;;;;;15.07;6.20;;;;;;;2.67;74.44;93516.84;516104;28;801;-49
2023/04/29 00:02:35;;;;;;;12.70;5.95;;;;;;;2.58;74.68;93514.38;516063;28;998;-49
2023/04/29 00:02:50;;;;;;;12.87;6.00;;;;;;;2.59;74.86;93518.59;516095;28;793;-49
2023/04/29 00:03:07;;;;;;;10.33;6.03;;;;;;;2.64;74.76;93512.38;516061;28;1146;-50
2023/04/29 00:03:22;;;;;;;9.97;5.90;;;;;;;2.70;74.82;93512.38;516091;28;1004;-50
2023/04/29 00:03:38;;;;;;;10.03;5.70;;;;;;;2.75;75.22;93515.09;516063;28;1072;-49
2023/04/29 00:03:53;;;;;;;9.90;5.80;;;;;;;2.80;74.82;93519.81;516051;28;839;-49
2023/04/29 00:04:08;;;;;;;8.30;5.82;;;;;;;2.78;74.78;93508.66;514414;28;1405;-49
2023/04/29 00:04:24;;;;;;;7.60;6.07;;;;;;;2.86;74.98;93515.09;514016;28;840;-48
2023/04/29 00:04:40;;;;;;;8.63;6.50;;;;;;;2.83;74.68;93518.84;513824;28;1369;-49
2023/04/29 00:04:56;;;;;;;9.70;6.45;;;;;;;2.80;75.28;93514.38;513995;28;1000;-51
2023/04/29 00:05:12;;;;;;;9.75;5.90;;;;;;;2.81;75.34;93517.84;514818;28;1116;-49
2023/04/29 00:05:27;;;;;;;10.20;6.15;;;;;;;2.74;75.37;93516.34;514144;28;798;-50
2023/04/29 00:05:43;;;;;;;9.37;6.17;;;;;;;2.72;75.36;93518.09;513976;28;856;-49
2023/04/29 00:05:59;;;;;;;8.35;6.10;;;;;;;2.60;75.31;93490.09;514118;28;853;-49
2023/04/29 00:06:15;;;;;;;9.55;6.20;;;;;;;2.78;74.80;93516.09;514687;28;1628;-51
2023/04/29 00:06:30;;;;;;;10.60;6.10;;;;;;;2.84;75.39;93519.56;516002;28;1223;-49
2023/04/29 00:06:46;;;;;;;8.97;6.40;;;;;;;2.82;74.95;93511.13;516046;28;836;-50
2023/04/29 00:07:01;;;;;;;9.02;6.47;;;;;;;2.77;75.32;93515.34;516096;28;818;-50
2023/04/29 00:07:16;;;;;;;9.83;6.33;;;;;;;2.68;75.05;93518.34;516108;28;782;-48
2023/04/29 00:07:32;;;;;;;9.13;6.27;;;;;;;2.65;75.56;93518.56;516111;28;810;-50
2023/04/29 00:07:47;;;;;;;9.48;6.00;;;;;;;2.67;75.58;93519.56;516172;28;809;-50
2023/04/29 00:08:03;;;;;;;9.37;5.97;;;;;;;2.70;75.51;93515.88;515956;28;1178;-50
2023/04/29 00:08:19;;;;;;;8.73;6.28;;;;;;;2.75;75.08;93520.56;514859;28;1703;-49
2023/04/29 00:08:35;;;;;;;8.85;6.68;;;;;;;2.79;75.24;93518.34;516017;28;1083;-51
2023/04/29 00:08:51;;;;;;;6.90;6.13;;;;;;;2.85;75.25;93521.06;515892;28;856;-49
2023/04/29 00:09:07;;;;;;;6.20;5.63;;;;;;;2.91;75.00;93519.81;516138;28;847;-50
2023/04/29 00:09:22;;;;;;;6.53;5.82;;;;;;;2.95;74.78;93523.03;516132;28;860;-50
2023/04/29 00:09:37;;;;;;;8.33;6.20;;;;;;;3.00;75.05;93521.53;514813;28;1080;-50
2023/04/29 00:09:53;;;;;;;8.37;6.03;;;;;;;3.04;74.25;93522.03;514013;28;884;-50
2023/04/29 00:10:09;;;;;;;7.65;5.57;;;;;;;3.00;74.52;93521.53;514090;28;864;-50
2023/04/29 00:10:24;;;;;;;8.48;5.78;;;;;;;2.92;74.43;93518.56;513988;28;794;-50
2023/04/29 00:10:40;;;;;;;9.43;6.17;;;;;;;2.85;74.19;93521.81;514004;28;874;-49
2023/04/29 00:10:55;;;;;;;9.60;6.18;;;;;;;2.76;74.66;93518.56;513966;28;892;-52
2023/04/29 00:11:11;;;;;;;8.23;6.40;;;;;;;2.73;75.14;93520.31;515562;28;1025;-51
2023/04/29 00:11:26;;;;;;;7.68;6.25;;;;;;;2.74;75.24;93521.06;516115;28;1006;-49
2023/04/29 00:11:41;;;;;;;6.87;5.93;;;;;;;2.73;74.91;93522.31;516103;28;871;-50
2023/04/29 00:11:57;;;;;;;7.37;6.00;;;;;;;2.74;75.14;93518.34;516057;28;879;-51
2023/04/29 00:12:12;;;;;;;8.82;6.50;;;;;;;2.43;75.43;93480.41;515218;28;826;-50
2023/04/29 00:12:29;;;;;;;8.20;6.40;;;;;;;2.68;74.94;93523.81;514005;28;1127;-51
2023/04/29 00:12:44;;;;;;;8.60;6.30;;;;;;;2.68;75.14;93525.78;514044;28;894;-50
2023/04/29 00:12:59;;;;;;;8.23;6.27;;;;;;;2.72;75.45;93524.28;514094;28;871;-52
2023/04/29 00:13:15;;;;;;;8.43;6.03;;;;;;;2.70;75.51;93518.59;514032;28;845;-51
2023/04/29 00:13:30;;;;;;;9.63;6.40;;;;;;;2.71;75.29;93509.16;514038;28;1077;-50
2023/04/29 00:13:46;;;;;;;9.40;6.22;;;;;;;2.83;74.79;93521.56;514066;28;881;-50
2023/04/29 00:14:01;;;;;;;8.53;5.70;;;;;;;2.88;74.70;93528.97;514297;28;1088;-50
2023/04/29 00:14:17;;;;;;;8.93;5.87;;;;;;;2.93;74.83;93528.25;515147;28;1089;-50
2023/04/29 00:14:32;;;;;;;8.00;6.03;;;;;;;2.98;74.75;93524.78;513916;28;1653;-50
2023/04/29 00:14:47;;;;;;;10.03;6.10;;;;;;;3.01;74.38;93518.31;514019;28;766;-51
2023/04/29 00:15:04;;;;;;;10.53;6.20;;;;;;;2.97;74.31;93520.53;514007;28;840;-51
2023/04/29 00:15:20;;;;;;;10.52;6.50;;;;;;;2.88;74.47;93520.78;514069;28;892;-50
2023/04/29 00:15:36;;;;;;;11.32;6.60;;;;;;;2.91;74.67;93525.28;514843;28;1084;-50
2023/04/29 00:15:51;;;;;;;12.15;6.78;;;;;;;2.92;75.08;93526.75;515368;28;872;-51
2023/04/29 00:16:09;;;;;;;12.10;6.90;;;;;;;2.83;74.94;93507.19;514129;28;833;-51
2023/04/29 00:16:24;;;;;;;11.70;6.63;;;;;;;3.03;75.16;93526.00;514447;28;1227;-52
2023/04/29 00:16:40;;;;;;;11.00;6.45;;;;;;;3.10;74.89;93530.22;518134;28;892;-52
2023/04/29 00:16:56;;;;;;;9.60;6.13;;;;;;;3.12;74.85;93523.00;517996;28;824;-50
2023/04/29 00:17:11;;;;;;;21.15;6.30;;;;;;;3.17;74.27;93529.69;516341;28;1142;-51
2023/04/29 00:17:26;;;;;;;20.40;6.27;;;;;;;3.22;74.09;93528.94;516112;28;898;-52
2023/04/29 00:17:42;;;;;;;9.20;6.13;;;;;;;3.15;74.33;93516.56;516041;28;1161;-51
2023/04/29 00:17:57;;;;;;;9.10;6.00;;;;;;;3.11;74.44;93526.22;516029;28;1108;-50
2023/04/29 00:18:13;;;;;;;7.43;5.97;;;;;;;3.07;74.00;93519.03;515542;28;1695;-53
2023/04/29 00:18:28;;;;;;;6.68;5.97;;;;;;;3.10;74.21;93522.75;514343;28;961;-51
2023/04/29 00:18:43;;;;;;;6.97;6.20;;;;;;;2.98;74.25;93524.78;514243;28;873;-53
2023/04/29 00:18:59;;;;;;;8.57;7.38;;;;;;;2.90;74.71;93523.03;516042;28;950;-52
2023/04/29 00:19:14;;;;;;;10.50;8.40;;;;;;;2.84;74.78;93522.28;515962;28;992;-54
2023/04/29 00:19:30;;;;;;;12.45;8.60;;;;;;;2.80;74.63;93522.53;516077;28;1148;-51
2023/04/29 00:19:45;;;;;;;11.40;8.27;;;;;;;2.81;74.47;93520.56;516015;28;910;-50
2023/04/29 00:20:01;;;;;;;10.38;8.10;;;;;;;2.82;74.59;93522.78;515938;28;1056;-53
2023/04/29 00:20:17;;;;;;;10.70;8.23;;;;;;;2.88;74.65;93522.81;516032;28;829;-50
2023/04/29 00:20:33;;;;;;;10.35;8.27;;;;;;;2.92;74.41;93515.81;515979;28;880;-49
2023/04/29 00:20:48;;;;;;;11.00;8.60;;;;;;;2.95;74.90;93516.81;516057;28;814;-50
2023/04/29 00:21:06;;;;;;;13.67;8.97;;;;;;;3.01;74.27;93518.31;516048;28;1081;-50
2023/04/29 00:21:21;;;;;;;13.13;9.05;;;;;;;3.06;74.46;93517.56;516027;28;1980;-52
2023/04/29 00:21:37;;;;;;;11.57;9.40;;;;;;;3.10;74.40;93522.03;515967;28;1096;-51
2023/04/29 00:21:53;;;;;;;13.83;10.20;;;;;;;3.04;73.98;93514.59;516045;28;982;-51
2023/04/29 00:22:08;;;;;;;13.93;11.05;;;;;;;3.06;74.28;93519.53;516071;28;841;-51
2023/04/29 00:22:24;;;;;;;13.53;11.00;;;;;;;3.08;73.99;93517.06;515935;28;822;-50
2023/04/29 00:22:39;;;;;;;15.97;11.43;;;;;;;3.06;74.13;93522.25;514798;28;832;-52
2023/04/29 00:22:54;;;;;;;15.45;11.38;;;;;;;3.01;73.73;93521.03;514009;28;793;-51
2023/04/29 00:23:10;;;;;;;14.03;10.70;;;;;;;3.01;74.26;93512.13;515454;28;1084;-51
2023/04/29 00:23:26;;;;;;;14.57;10.45;;;;;;;3.03;73.84;93512.38;516061;28;834;-50
2023/04/29 00:23:41;;;;;;;13.80;10.57;;;;;;;3.05;73.65;93513.34;515913;28;831;-51
2023/04/29 00:23:57;;;;;;;15.43;10.73;;;;;;;3.07;74.10;93516.31;516060;28;1617;-51
2023/04/29 00:24:12;;;;;;;15.70;10.25;;;;;;;3.10;74.06;93511.84;516010;28;872;-51
2023/04/29 00:24:28;;;;;;;14.03;9.57;;;;;;;3.12;73.74;93519.53;516077;28;825;-50
2023/04/29 00:24:43;;;;;;;14.23;9.73;;;;;;;3.15;74.09;93518.53;515964;28;1132;-53
2023/04/29 00:24:59;;;;;;;14.25;9.57;;;;;;;3.18;73.85;93515.56;515965;28;956;-51
2023/04/29 00:25:15;;;;;;;14.00;9.00;;;;;;;3.22;74.00;93515.28;514408;28;1988;-50
2023/04/29 00:25:30;;;;;;;12.88;9.15;;;;;;;3.23;73.81;93514.78;514128;28;964;-52
2023/04/29 00:25:45;;;;;;;12.02;9.70;;;;;;;3.25;74.03;93512.31;514044;28;860;-50
2023/04/29 00:26:01;;;;;;;12.53;9.47;;;;;;;3.30;73.84;93510.81;514109;28;1084;-50
2023/04/29 00:26:16;;;;;;;14.30;9.60;;;;;;;3.31;74.01;93515.03;515967;28;978;-50
2023/04/29 00:26:32;;;;;;;13.52;9.95;;;;;;;3.34;73.63;93517.50;515981;28;916;-51
2023/04/29 00:26:47;;;;;;;14.63;9.75;;;;;;;3.38;73.69;93517.97;515994;28;916;-52
2023/04/29 00:27:03;;;;;;;16.07;10.27;;;;;;;3.30;73.38;93502.63;516029;28;856;-50
2023/04/29 00:27:19;;;;;;;15.88;10.63;;;;;;;3.44;73.12;93520.69;516070;28;896;-50
2023/04/29 00:27:34;;;;;;;16.23;10.30;;;;;;;3.46;72.75;93512.75;516010;28;1075;-52
2023/04/29 00:27:50;;;;;;;13.10;9.43;;;;;;;3.48;72.64;93510.25;516059;28;852;-51
2023/04/29 00:28:05;;;;;;;13.37;9.63;;;;;;;3.49;72.26;93509.75;515957;28;829;-53
2023/04/29 00:28:20;;;;;;;13.55;9.60;;;;;;;3.44;72.15;93512.50;514491;28;1663;-50
2023/04/29 00:28:36;;;;;;;12.23;9.20;;;;;;;3.44;71.94;93513.25;514041;28;912;-51
2023/04/29 00:28:51;;;;;;;12.63;9.32;;;;;;;3.46;71.88;93513.50;513950;28;901;-51
2023/04/29 00:29:06;;;;;;;14.73;9.80;;;;;;;3.49;72.17;93511.75;514935;28;1140;-52
2023/04/29 00:29:22;;;;;;;16.40;10.77;;;;;;;3.47;71.80;93514.22;516026;28;932;-53
2023/04/29 00:29:37;;;;;;;15.82;11.00;;;;;;;3.36;72.01;93512.28;516090;28;809;-52
2023/04/29 00:29:53;;;;;;;14.83;10.10;;;;;;;3.19;71.69;93514.31;516007;28;821;-51
2023/04/29 00:30:08;;;;;;;13.73;9.65;;;;;;;3.06;72.46;93514.84;516064;28;785;-51
2023/04/29 00:30:24;;;;;;;14.10;10.37;;;;;;;3.03;72.26;93510.38;515999;28;789;-50
2023/04/29 00:30:39;;;;;;;15.27;10.95;;;;;;;2.95;72.72;93511.38;515976;28;1131;-49
2023/04/29 00:30:55;;;;;;;16.37;11.97;;;;;;;2.88;72.89;93509.88;515408;28;1135;-51
2023/04/29 00:31:10;;;;;;;15.93;12.30;;;;;;;2.86;73.37;93508.91;515997;28;821;-50
2023/04/29 00:31:26;;;;;;;16.27;12.60;;;;;;;2.91;73.77;93513.59;516078;28;766;-51
2023/04/29 00:31:41;;;;;;;20.20;13.53;;;;;;;2.95;73.33;93506.66;516017;28;1630;-53
2023/04/29 00:31:56;;;;;;;20.60;13.68;;;;;;;3.03;73.50;93504.91;516096;28;904;-50
2023/04/29 00:32:12;;;;;;;19.70;14.00;;;;;;;3.10;73.41;93514.56;516237;28;1104;-52
2023/04/29 00:32:27;;;;;;;21.85;14.00;;;;;;;3.18;73.25;93520.28;517977;28;818;-52
2023/04/29 00:32:43;;;;;;;20.23;13.77;;;;;;;3.08;72.89;93495.97;518045;28;773;-50
2023/04/29 00:32:59;;;;;;;18.35;14.23;;;;;;;3.26;72.68;93511.06;517809;28;904;-53
2023/04/29 00:33:14;;;;;;;17.87;13.87;;;;;;;3.30;72.63;93511.56;513811;28;868;-53
2023/04/29 00:33:29;;;;;;;18.42;13.60;;;;;;;3.34;72.51;93512.03;512691;28;2773;-51
2023/04/29 00:33:45;;;;;;;19.20;13.90;;;;;;;3.39;71.84;93507.81;511594;29;1333;-53
2023/04/29 00:34:00;;;;;;;18.90;13.43;;;;;;;3.43;71.77;93509.03;511833;29;863;-53
2023/04/29 00:34:16;;;;;;;18.50;13.37;;;;;;;3.45;71.82;93505.78;511784;29;869;-54
2023/04/29 00:34:31;;;;;;;19.02;14.05;;;;;;;3.47;71.30;93506.78;511819;29;912;-51
2023/04/29 00:34:47;;;;;;;20.43;13.83;;;;;;;3.47;71.29;93503.31;512286;28;835;-52
2023/04/29 00:35:02;;;;;;;18.10;12.88;;;;;;;3.39;71.28;93505.84;513803;28;892;-52
2023/04/29 00:35:18;;;;;;;17.37;12.90;;;;;;;3.24;71.64;93501.91;514156;28;1135;-51
2023/04/29 00:35:33;;;;;;;18.43;12.73;;;;;;;3.16;72.42;93506.38;515821;28;1369;-52
2023/04/29 00:35:49;;;;;;;17.67;12.25;;;;;;;3.04;72.65;93503.69;516127;28;794;-51
2023/04/29 00:36:04;;;;;;;18.02;12.25;;;;;;;2.99;72.71;93504.44;515790;28;956;-52
2023/04/29 00:36:19;;;;;;;18.10;12.73;;;;;;;2.99;72.98;93498.22;515507;28;1643;-53
2023/04/29 00:36:35;;;;;;;16.80;12.97;;;;;;;3.03;72.79;93498.72;515837;28;851;-52
2023/04/29 00:36:50;;;;;;;19.45;12.35;;;;;;;3.05;72.89;93507.88;515741;28;1119;-53
2023/04/29 00:37:06;;;;;;;22.33;12.03;;;;;;;3.04;73.01;93505.66;515900;28;789;-53
2023/04/29 00:37:21;;;;;;;19.67;11.75;;;;;;;3.01;73.24;93501.22;515800;28;882;-50
2023/04/29 00:37:37;;;;;;;19.10;11.93;;;;;;;2.99;73.10;93500.94;515835;28;910;-53
2023/04/29 00:37:52;;;;;;;20.00;12.73;;;;;;;2.86;73.28;93493.28;515878;28;831;-53
2023/04/29 00:38:08;;;;;;;17.80;13.27;;;;;;;2.82;73.35;93508.41;516042;28;777;-52
2023/04/29 00:38:23;;;;;;;17.08;12.90;;;;;;;2.80;73.93;93503.47;515228;28;1285;-53
2023/04/29 00:38:39;;;;;;;16.90;12.57;;;;;;;2.76;73.48;93508.41;514034;28;860;-51
2023/04/29 00:38:54;;;;;;;15.35;12.00;;;;;;;2.70;73.78;93501.50;513740;28;1691;-52
2023/04/29 00:39:10;;;;;;;16.33;11.70;;;;;;;2.69;74.34;93508.16;515393;28;864;-51
2023/04/29 00:39:25;;;;;;;16.70;11.07;;;;;;;2.72;74.00;93504.47;515993;28;1584;-51
2023/04/29 00:39:41;;;;;;;15.20;10.60;;;;;;;2.73;73.87;93503.22;515898;28;1103;-50
2023/04/29 00:39:56;;;;;;;16.70;11.27;;;;;;;2.78;73.85;93497.75;515988;28;896;-53
2023/04/29 00:40:13;;;;;;;16.93;11.63;;;;;;;2.85;74.24;93500.00;515927;28;789;-51
2023/04/29 00:40:29;;;;;;;14.50;11.40;;;;;;;2.94;73.82;93502.47;515926;28;996;-51
2023/04/29 00:40:44;;;;;;;15.13;11.33;;;;;;;2.87;73.53;93485.84;516017;28;813;-53
2023/04/29 00:41:00;;;;;;;15.80;11.10;;;;;;;3.05;73.75;93504.44;515981;28;798;-53
2023/04/29 00:41:15;;;;;;;14.45;10.48;;;;;;;3.05;73.41;93499.69;515897;28;1127;-53
2023/04/29 00:41:31;;;;;;;13.40;9.77;;;;;;;3.08;73.38;93500.69;515493;28;1963;-52
2023/04/29 00:41:46;;;;;;;13.93;9.73;;;;;;;3.11;73.63;93504.41;515761;28;1323;-53
2023/04/29 00:42:02;;;;;;;14.68;10.48;;;;;;;3.13;73.20;93499.94;515799;28;1100;-51
2023/04/29 00:42:18;;;;;;;14.50;9.90;;;;;;;3.18;73.21;93501.19;514535;28;838;-53
2023/04/29 00:42:34;;;;;;;13.02;9.32;;;;;;;3.21;73.21;93500.91;513797;28;1110;-51
2023/04/29 00:42:49;;;;;;;14.23;9.93;;;;;;;3.24;72.60;93499.91;515208;28;1021;-53
2023/04/29 00:43:05;;;;;;;14.77;10.50;;;;;;;3.30;72.82;93499.88;515787;28;783;-53
2023/04/29 00:43:20;;;;;;;14.15;10.43;;;;;;;3.34;72.20;93503.09;515841;28;973;-52
2023/04/29 00:43:36;;;;;;;13.40;10.17;;;;;;;3.36;71.96;93493.19;515850;28;888;-52
2023/04/29 00:43:51;;;;;;;12.05;9.68;;;;;;;3.37;71.78;93491.19;516049;28;795;-53
2023/04/29 00:44:07;;;;;;;11.93;9.33;;;;;;;3.27;71.68;93496.19;516020;28;976;-53
2023/04/29 00:44:22;;;;;;;12.90;9.75;;;;;;;3.15;71.80;93500.19;515785;28;1111;-50
2023/04/29 00:44:37;;;;;;;15.27;10.03;;;;;;;3.00;72.18;93497.75;516058;28;982;-53
2023/04/29 00:44:53;;;;;;;13.98;9.95;;;;;;;2.93;72.36;93495.50;514152;28;1604;-53
2023/04/29 00:45:10;;;;;;;15.70;10.23;;;;;;;2.88;73.08;93490.81;513889;28;1008;-52
2023/04/29 00:45:26;;;;;;;18.10;10.40;;;;;;;2.89;73.05;93492.31;515803;28;834;-51
2023/04/29 00:45:42;;;;;;;15.68;10.30;;;;;;;2.88;73.01;93496.25;515927;28;1226;-54
2023/04/29 00:45:57;;;;;;;15.43;9.85;;;;;;;2.84;73.16;93492.28;516008;28;1100;-54
2023/04/29 00:46:13;;;;;;;13.73;9.52;;;;;;;2.80;73.42;93492.56;515946;28;848;-53
2023/04/29 00:46:28;;;;;;;15.03;10.10;;;;;;;2.79;73.39;93491.09;515923;28;1352;-51
2023/04/29 00:46:43;;;;;;;15.93;10.43;;;;;;;2.74;73.87;93491.06;515766;28;1246;-51
2023/04/29 00:46:59;;;;;;;15.30;10.43;;;;;;;2.65;73.88;93494.03;515969;28;1676;-55
2023/04/29 00:47:14;;;;;;;17.17;11.57;;;;;;;2.66;74.43;93492.81;515823;28;1163;-53
2023/04/29 00:47:30;;;;;;;16.10;11.45;;;;;;;2.69;74.07;93494.53;516080;28;844;-53
2023/04/29 00:47:45;;;;;;;14.33;10.13;;;;;;;2.76;74.36;93494.03;515984;28;1753;-54
2023/04/29 00:48:01;;;;;;;15.20;10.10;;;;;;;2.80;73.77;93498.00;515980;28;856;-52
2023/04/29 00:48:17;;;;;;;14.40;10.40;;;;;;;2.88;73.96;93496.25;515996;28;1080;-53
2023/04/29 00:48:32;;;;;;;16.70;10.48;;;;;;;2.92;73.39;93493.28;516027;28;845;-53
2023/04/29 00:48:48;;;;;;;16.13;10.23;;;;;;;2.99;73.59;93498.22;515796;28;1107;-53
2023/04/29 00:49:04;;;;;;;12.25;9.82;;;;;;;3.02;73.27;93489.81;514583;28;948;-51
2023/04/29 00:49:19;;;;;;;12.63;9.23;;;;;;;3.05;72.83;93494.25;515559;28;1584;-52
2023/04/29 00:49:35;;;;;;;15.55;9.70;;;;;;;3.07;73.15;93494.47;515947;28;923;-52
2023/04/29 00:49:50;;;;;;;16.43;10.47;;;;;;;3.08;73.06;93492.50;515949;28;873;-51
2023/04/29 00:50:07;;;;;;;14.73;10.20;;;;;;;3.12;73.00;93495.00;515818;28;802;-53
2023/04/29 00:50:22;;;;;;;16.00;9.85;;;;;;;3.14;73.13;93489.78;515599;28;1119;-54
2023/04/29 00:50:37;;;;;;;14.50;9.27;;;;;;;3.15;73.14;93483.81;515852;28;1011;-52
2023/04/29 00:50:53;;;;;;;12.23;8.68;;;;;;;3.17;72.83;93494.22;515761;28;837;-53
2023/04/29 00:51:08;;;;;;;11.40;8.70;;;;;;;3.19;72.59;93489.00;515880;28;813;-53
2023/04/29 00:51:24;;;;;;;11.13;8.93;;;;;;;3.14;72.96;93489.78;515870;28;823;-52
2023/04/29 00:51:39;;;;;;;14.10;9.47;;;;;;;3.12;72.69;93486.81;511792;29;790;-53
2023/04/29 00:51:56;;;;;;;15.13;9.63;;;;;;;3.00;73.26;93494.25;512133;28;962;-50
2023/04/29 00:52:12;;;;;;;14.43;9.45;;;;;;;2.77;73.55;93493.53;513802;28;917;-53
2023/04/29 00:52:30;;;;;;;15.00;9.45;;;;;;;2.57;74.12;93499.25;511813;28;1242;-53
2023/04/29 00:52:46;;;;;;;14.57;9.20;;;;;;;2.59;74.61;93488.59;511784;29;865;-53
2023/04/29 00:53:02;;;;;;;12.63;8.50;;;;;;;2.64;74.78;93487.84;511776;28;850;-52
2023/04/29 00:53:18;;;;;;;10.43;8.40;;;;;;;2.70;74.87;93488.59;511827;28;1029;-52
2023/04/29 00:53:33;;;;;;;9.33;8.23;;;;;;;2.76;74.75;93496.78;513912;28;1372;-53
2023/04/29 00:53:49;;;;;;;11.25;8.77;;;;;;;2.80;74.29;93487.09;515793;28;1690;-51
2023/04/29 00:54:06;;;;;;;13.48;9.48;;;;;;;2.86;73.87;93495.25;513692;28;877;-51
2023/04/29 00:54:21;;;;;;;11.82;8.77;;;;;;;2.92;73.96;93485.13;513806;28;1688;-53
2023/04/29 00:54:37;;;;;;;12.93;9.33;;;;;;;2.96;74.16;93491.81;513824;28;846;-53
2023/04/29 00:54:53;;;;;;;15.85;10.48;;;;;;;3.00;73.88;93495.00;513699;28;1084;-53
2023/04/29 00:55:11;;;;;;;15.25;10.45;;;;;;;3.03;73.47;93499.44;513778;28;805;-52
2023/04/29 00:55:27;;;;;;;14.45;10.45;;;;;;;2.83;73.48;93458.84;514849;28;908;-53
2023/04/29 00:55:46;;;;;;;16.42;11.23;;;;;;;3.06;73.26;93492.25;513838;28;1002;-51
2023/04/29 00:56:01;;;;;;;17.67;11.60;;;;;;;2.93;73.07;93473.69;513921;28;1727;-53
2023/04/29 00:56:19;;;;;;;17.85;11.35;;;;;;;2.98;73.14;93492.03;515706;28;1102;-53
2023/04/29 00:56:36;;;;;;;17.35;11.48;;;;;;;2.78;74.01;93489.59;515781;28;934;-53
2023/04/29 00:56:52;;;;;;;16.30;11.23;;;;;;;2.67;74.11;93486.88;513720;28;852;-53
2023/04/29 00:57:07;;;;;;;15.20;10.53;;;;;;;2.52;74.43;93485.63;513790;28;829;-52
2023/04/29 00:57:23;;;;;;;18.02;10.95;;;;;;;2.48;74.94;93485.88;513760;28;1345;-50
2023/04/29 00:57:38;;;;;;;19.47;11.63;;;;;;;2.50;75.11;93488.09;513859;28;872;-50
2023/04/29 00:57:54;;;;;;;15.52;11.02;;;;;;;2.53;75.45;93485.16;513714;28;1171;-54
2023/04/29 00:58:09;;;;;;;16.00;11.10;;;;;;;2.54;75.10;93475.72;513852;28;857;-52
2023/04/29 00:58:32;;;;;;;19.17;11.52;;;;;;;2.66;75.31;93487.38;513707;28;1674;-54
2023/04/29 00:58:49;;;;;;;19.83;11.75;;;;;;;2.63;74.95;93482.91;513032;28;923;-53
2023/04/29 00:59:04;;;;;;;18.13;11.80;;;;;;;2.61;75.21;93483.41;513558;28;1628;-53
2023/04/29 00:59:20;;;;;;;17.63;11.50;;;;;;;2.64;75.19;93482.41;513802;28;1659;-53
2023/04/29 00:59:36;;;;;;;17.73;11.63;;;;;;;2.69;74.97;93481.66;511741;29;827;-54
2023/04/29 00:59:52;;;;;;;19.10;12.60;;;;;;;2.75;75.04;93481.66;511863;29;803;-53
2023/04/29 01:00:08;;;;;;;19.63;12.85;;;;;;;2.80;74.70;93478.91;511842;29;1102;-53
2023/04/29 01:00:25;;;;;;;19.17;12.38;;;;;;;2.86;74.59;93484.34;511509;29;833;-51
2023/04/29 01:00:40;;;;;;;17.50;11.73;;;;;;;2.91;73.95;93484.38;513445;28;1045;-54
2023/04/29 01:00:55;;;;;;;15.68;10.77;;;;;;;2.95;74.25;93484.09;513682;28;876;-52
2023/04/29 01:01:11;;;;;;;16.87;11.53;;;;;;;2.99;73.98;93485.34;513826;28;773;-52
2023/04/29 01:01:27;;;;;;;21.20;12.75;;;;;;;2.92;73.70;93471.47;514521;28;1977;-53
2023/04/29 01:01:43;;;;;;;24.65;12.88;;;;;;;2.94;73.70;93479.91;515862;28;867;-54
2023/04/29 01:02:00;;;;;;;26.33;13.52;;;;;;;2.92;74.02;93477.66;515791;28;1024;-54
2023/04/29 01:02:16;;;;;;;24.23;13.65;;;;;;;2.95;74.02;93482.13;516493;28;1190;-53
2023/04/29 01:02:32;;;;;;;24.42;13.23;;;;;;;2.95;74.22;93479.41;516796;28;957;-53
2023/04/29 01:02:48;;;;;;;22.20;12.80;;;;;;;2.98;74.04;93483.88;513703;28;920;-54
2023/04/29 01:03:04;;;;;;;20.92;12.02;;;;;;;2.95;73.87;93478.66;513783;28;873;-53
2023/04/29 01:03:20;;;;;;;20.17;11.93;;;;;;;2.85;74.19;93480.91;513821;28;809;-54
2023/04/29 01:03:35;;;;;;;21.20;12.45;;;;;;;2.79;74.37;93477.44;514798;28;872;-54
2023/04/29 01:03:51;;;;;;;20.30;12.67;;;;;;;2.47;74.43;93448.97;515723;28;1147;-55
2023/04/29 01:04:06;;;;;;;20.02;12.30;;;;;;;2.59;74.66;93480.44;514563;28;1369;-54
2023/04/29 01:04:22;;;;;;;18.67;10.67;;;;;;;2.51;74.70;93476.72;515693;28;1530;-53
2023/04/29 01:04:37;;;;;;;17.90;9.80;;;;;;;2.42;75.48;93484.41;515396;28;1623;-54
2023/04/29 01:04:53;;;;;;;20.90;10.10;;;;;;;2.30;75.11;93480.91;515713;28;859;-52
2023/04/29 01:05:08;;;;;;;19.23;10.68;;;;;;;2.34;75.37;93478.69;515862;28;907;-52
2023/04/29 01:05:24;;;;;;;16.90;10.73;;;;;;;2.33;75.77;93468.28;515582;28;1154;-54
2023/04/29 01:05:39;;;;;;;15.95;10.57;;;;;;;2.43;75.77;93480.41;515774;28;1365;-53
2023/04/29 01:06:08;;;;;;;15.37;10.40;;;;;;;2.54;75.63;93474.97;515876;28;901;-54
2023/04/29 01:06:44;;;;;;;15.25;9.43;;;;;;;2.63;75.31;93478.19;515683;28;1179;-53
2023/04/29 01:07:17;;;;;;;14.82;8.70;;;;;;;2.74;74.45;93475.47;513756;28;942;-53
2023/04/29 01:07:44;;;;;;;12.75;8.77;;;;;;;2.80;74.45;93475.44;513754;28;927;-55
2023/04/29 01:08:14;;;;;;;11.57;8.45;;;;;;;2.74;74.23;93474.72;511851;29;810;-53
2023/04/29 01:08:33;;;;;;;10.20;7.50;;;;;;;2.71;74.02;93476.44;513784;28;874;-53
2023/04/29 01:09:03;;;;;;;14.60;8.18;;;;;;;2.76;73.88;93474.97;513675;28;829;-55
2023/04/29 01:09:40;;;;;;;18.05;8.15;;;;;;;2.80;74.16;93475.44;513836;28;934;-52
2023/04/29 01:10:08;;;;;;;13.65;7.50;;;;;;;2.84;73.95;93476.69;513021;28;874;-51
2023/04/29 01:10:28;;;;;;;14.18;8.00;;;;;;;2.91;73.48;93478.16;513686;28;860;-54
2023/04/29 01:10:52;;;;;;;11.68;7.63;;;;;;;2.94;73.50;93475.19;513483;28;881;-53
2023/04/29 01:11:09;;;;;;;11.13;7.38;;;;;;;2.96;72.99;93477.41;513643;28;1162;-54
2023/04/29 01:11:30;;;;;;;12.32;7.82;;;;;;;2.97;73.27;93476.91;515564;28;867;-53
2023/04/29 01:12:11;;;;;;;11.48;8.13;;;;;;;3.04;72.74;93483.84;512690;28;905;-54
2023/04/29 01:12:35;;;;;;;11.88;7.72;;;;;;;2.99;73.16;93476.41;513669;28;907;-53
2023/04/29 01:13:06;;;;;;;13.07;8.10;;;;;;;2.95;73.27;93475.91;513539;28;1235;-54
2023/04/29 01:13:36;;;;;;;13.25;8.13;;;;;;;2.98;73.05;93478.41;511682;29;954;-53
2023/04/29 01:13:59;;;;;;;18.83;7.88;;;;;;;3.04;73.08;93478.38;511763;29;858;-52
2023/04/29 01:14:15;;;;;;;11.23;7.80;;;;;;;3.05;73.00;93479.88;511963;28;1136;-54
2023/04/29 01:14:31;;;;;;;10.80;7.93;;;;;;;3.07;72.46;93477.41;511716;29;970;-53
2023/04/29 01:14:59;;;;;;;10.10;7.55;;;;;;;3.11;72.47;93479.84;509561;29;885;-53
2023/04/29 01:15:22;;;;;;;12.73;7.97;;;;;;;3.13;72.50;93477.38;508596;29;1598;-53
2023/04/29 01:15:57;;;;;;;11.15;7.90;;;;;;;3.14;72.28;93478.88;509752;29;2408;-55
2023/04/29 01:16:24;;;;;;;11.73;8.13;;;;;;;3.15;72.45;93481.09;512524;28;1339;-54
2023/04/29 01:16:59;;;;;;;14.32;8.88;;;;;;;3.07;72.37;93480.84;512648;28;823;-52
2023/04/29 01:17:18;;;;;;;17.15;10.10;;;;;;;2.96;72.31;93480.16;514126;28;1267;-53
2023/04/29 01:17:41;;;;;;;17.60;11.23;;;;;;;2.89;72.31;93477.91;513744;28;856;-54
2023/04/29 01:18:11;;;;;;;19.65;12.88;;;;;;;2.82;72.50;93462.81;513776;28;956;-54
2023/04/29 01:18:49;;;;;;;25.50;16.45;;;;;;;2.93;72.78;93478.41;513738;28;1148;-54
2023/04/29 01:19:33;;;;;;;32.90;20.17;;;;;;;2.97;72.95;93474.19;513706;28;1008;-54
2023/04/29 01:19:55;;;;;;;36.42;21.30;;;;;;;3.02;72.87;93480.88;511472;28;1224;-53
2023/04/29 01:20:11;;;;;;;35.60;20.42;;;;;;;3.04;73.53;93473.69;511648;29;839;-54
2023/04/29 01:20:27;;;;;;;35.77;20.47;;;;;;;3.07;73.02;93477.41;513655;28;1429;-54
2023/04/29 01:20:43;;;;;;;35.50;19.80;;;;;;;3.02;73.14;93476.16;515656;28;1417;-54
2023/04/29 01:20:59;;;;;;;33.03;19.73;;;;;;;2.95;72.64;93476.66;515721;28;908;-55
2023/04/29 01:21:15;;;;;;;33.42;19.73;;;;;;;2.78;73.16;93473.22;515753;28;856;-54
2023/04/29 01:21:30;;;;;;;33.07;18.27;;;;;;;2.62;73.59;93475.97;515738;28;1914;-53
2023/04/29 01:21:47;;;;;;;32.67;18.33;;;;;;;2.59;73.88;93474.97;515680;28;1167;-53
2023/04/29 01:22:02;;;;;;;33.85;19.55;;;;;;;2.63;73.77;93477.44;515695;28;926;-53